Rozellville, Wisconsin
Current Conditions -  °F | °C
As of 2:54 AM on Monday 20 Oct 2014 (Local Time) from KMFI Reporting Station
Few Clouds Few Clouds  
Wind Chill: 42°   Ceiling: Unl
Heat Index: 47°   Visibility: 10mi
Dew Point: 43°   Wind: 10mph
Humidity: 86%   Direction: 340°NNW
Pressure: 29.78"   Gusts: NA
Location:  44.7914°N, 90.0669°W
Report Text: KMFI 200754Z AUTO 34009KT 10SM FEW085 08/06 A2978 RMK AO2 SLP089 T00830061
Loading
Personal Weather Stations






























Interactive Weather Map
Tropical Storm Tracking
New forecast layout! Learn more

10-Day Weather Forecast

Advertisements
Track Severe Weather on mobile